Time;durP1;ratioP1;P1;durP2;ratioP2;P2;SDS_P1;SDS_P2;PMS_P1;PMS_P2;Temp;Humidity;BMP_temperature;BMP_pressure;BME280_temperature;BME280_humidity;BME280_pressure;Samples;Min_cycle;Max_cycle;Signal;HPM_P1;HPM_P2
2023/05/10 00:00:53;;;;;;;3.00;2.57;;;15.00;99.90;;;;;;5065111;28;20499;-53
2023/05/10 00:03:19;;;;;;;3.47;2.50;;;15.00;99.90;;;;;;5069459;28;20274;-54
2023/05/10 00:05:44;;;;;;;2.60;1.93;;;15.00;99.90;;;;;;5068642;28;20242;-53
2023/05/10 00:08:10;;;;;;;2.67;2.30;;;14.90;99.90;;;;;;5065746;28;20196;-52
2023/05/10 00:10:37;;;;;;;2.77;2.33;;;14.90;99.90;;;;;;5064908;28;20184;-53
2023/05/10 00:13:02;;;;;;;4.73;2.40;;;14.90;99.90;;;;;;5067174;28;20194;-54
2023/05/10 00:15:30;;;;;;;4.57;2.63;;;14.80;99.90;;;;;;5066133;28;20457;-52
2023/05/10 00:17:56;;;;;;;2.20;2.00;;;14.80;99.90;;;;;;5065661;28;20200;-55
2023/05/10 00:20:22;;;;;;;3.37;2.40;;;14.80;99.90;;;;;;5074785;28;20471;-54
2023/05/10 00:22:47;;;;;;;5.30;2.80;;;14.80;99.90;;;;;;5070067;28;20446;-53
2023/05/10 00:25:13;;;;;;;3.53;2.60;;;14.80;99.90;;;;;;5068539;28;20649;-55
2023/05/10 00:27:39;;;;;;;2.37;2.17;;;14.80;99.90;;;;;;5069550;28;20210;-55
2023/05/10 00:30:06;;;;;;;4.30;2.30;;;14.70;99.90;;;;;;5069465;28;20198;-54
2023/05/10 00:32:32;;;;;;;3.07;2.80;;;14.70;99.90;;;;;;5069067;28;20176;-55
2023/05/10 00:34:57;;;;;;;4.30;2.30;;;14.70;99.90;;;;;;5068037;28;20440;-53
2023/05/10 00:37:23;;;;;;;2.60;2.40;;;14.60;99.90;;;;;;5068887;28;20431;-56
2023/05/10 00:39:49;;;;;;;3.10;2.60;;;14.60;99.90;;;;;;5068983;28;20195;-55
2023/05/10 00:42:14;;;;;;;3.10;2.80;;;14.60;99.90;;;;;;5068799;28;20192;-54
2023/05/10 00:44:40;;;;;;;3.73;2.83;;;14.60;99.90;;;;;;5068996;28;20190;-52
2023/05/10 00:47:07;;;;;;;2.80;2.60;;;14.60;99.90;;;;;;5086901;28;20210;-55
2023/05/10 00:49:32;;;;;;;2.80;2.60;;;14.60;99.90;;;;;;5087687;28;20568;-54
2023/05/10 00:51:58;;;;;;;2.77;2.57;;;14.50;99.90;;;;;;5089169;28;20472;-55
2023/05/10 00:54:24;;;;;;;3.60;2.60;;;14.50;99.90;;;;;;5089490;28;20599;-56
2023/05/10 00:56:50;;;;;;;2.97;2.60;;;14.40;99.90;;;;;;5073643;28;20701;-56
2023/05/10 00:59:17;;;;;;;2.87;2.57;;;14.40;99.90;;;;;;5066328;28;20464;-54
2023/05/10 01:01:44;;;;;;;2.13;1.93;;;14.30;99.90;;;;;;5067765;28;20978;-53
2023/05/10 01:04:12;;;;;;;5.63;2.40;;;14.30;99.90;;;;;;5067336;28;20457;-56
2023/05/10 01:06:41;;;;;;;2.70;2.50;;;14.30;99.90;;;;;;5065582;28;20532;-56
2023/05/10 01:09:07;;;;;;;2.83;2.60;;;14.20;99.90;;;;;;5066550;28;20952;-56
2023/05/10 01:11:37;;;;;;;2.50;2.30;;;14.20;99.90;;;;;;5065666;28;20445;-52
2023/05/10 01:14:04;;;;;;;4.67;1.87;;;14.20;99.90;;;;;;5066706;28;20223;-54
2023/05/10 01:16:35;;;;;;;3.10;2.10;;;14.20;99.90;;;;;;5066785;28;20970;-56
2023/05/10 01:19:01;;;;;;;2.63;2.37;;;14.10;99.90;;;;;;5064397;28;20557;-54
2023/05/10 01:21:42;;;;;;;2.53;2.33;;;14.10;99.90;;;;;;5067080;28;20585;-53
2023/05/10 01:24:53;;;;;;;2.43;2.23;;;14.10;99.90;;;;;;5067827;28;20195;-53
2023/05/10 01:27:35;;;;;;;2.67;2.47;;;14.00;99.90;;;;;;5050035;28;20508;-53
2023/05/10 01:30:22;;;;;;;3.50;2.57;;;13.90;99.90;;;;;;5066837;28;20450;-52
2023/05/10 01:33:24;;;;;;;2.60;2.10;;;13.90;99.90;;;;;;5069246;28;20441;-53
2023/05/10 01:36:08;;;;;;;2.43;2.23;;;13.90;99.90;;;;;;5073914;28;20779;-55
2023/05/10 01:38:56;;;;;;;3.30;3.00;;;13.90;99.90;;;;;;5067869;28;20441;-54
2023/05/10 01:41:46;;;;;;;4.40;2.47;;;13.90;99.90;;;;;;5064474;28;20955;-53
2023/05/10 01:44:31;;;;;;;4.70;2.50;;;13.80;99.90;;;;;;5060509;28;20955;-53
2023/05/10 01:47:10;;;;;;;3.83;2.47;;;13.80;99.90;;;;;;5065744;28;20474;-54
2023/05/10 01:49:44;;;;;;;2.83;2.53;;;13.90;99.90;;;;;;5061658;28;20550;-54
2023/05/10 01:52:14;;;;;;;9.80;2.57;;;13.80;99.90;;;;;;5069785;28;20893;-55
2023/05/10 01:54:48;;;;;;;2.40;2.20;;;13.70;99.90;;;;;;5069166;28;20764;-54
2023/05/10 01:57:14;;;;;;;3.47;1.97;;;13.70;99.90;;;;;;5068463;28;20488;-52
2023/05/10 01:59:42;;;;;;;3.50;2.83;;;13.70;99.90;;;;;;5067971;28;20465;-54
2023/05/10 02:02:11;;;;;;;5.57;2.17;;;13.70;99.90;;;;;;5069047;28;20468;-54
2023/05/10 02:04:39;;;;;;;3.53;2.50;;;13.60;99.90;;;;;;5065547;28;20963;-54
2023/05/10 02:07:06;;;;;;;2.67;2.47;;;13.70;99.90;;;;;;5067566;28;20594;-55
2023/05/10 02:09:34;;;;;;;3.00;2.10;;;13.60;99.90;;;;;;5070090;28;20503;-54
2023/05/10 02:12:02;;;;;;;2.60;2.40;;;13.50;99.90;;;;;;5068681;28;20442;-56
2023/05/10 02:14:32;;;;;;;2.20;2.00;;;13.50;99.90;;;;;;5067989;28;20528;-52
2023/05/10 02:16:59;;;;;;;4.73;3.00;;;13.50;99.90;;;;;;5067839;28;20453;-53
2023/05/10 02:19:27;;;;;;;2.80;1.83;;;13.40;99.90;;;;;;5067946;28;20446;-54
2023/05/10 02:21:56;;;;;;;2.73;2.53;;;13.10;99.90;;;;;;5062998;28;20515;-54
2023/05/10 02:24:23;;;;;;;2.90;2.60;;;13.40;99.90;;;;;;5068562;28;20488;-54
2023/05/10 02:26:51;;;;;;;4.10;2.03;;;13.40;99.90;;;;;;5070892;28;20466;-54
2023/05/10 02:29:18;;;;;;;4.33;2.33;;;13.40;99.90;;;;;;5069087;28;20495;-56
2023/05/10 02:31:45;;;;;;;2.60;2.40;;;13.30;99.90;;;;;;5088297;28;20577;-56
2023/05/10 02:34:12;;;;;;;3.37;2.33;;;13.30;99.90;;;;;;5071287;28;20454;-56
2023/05/10 02:36:39;;;;;;;3.10;2.20;;;13.30;99.90;;;;;;5067206;28;20450;-54
2023/05/10 02:39:09;;;;;;;2.50;2.07;;;13.30;99.90;;;;;;5068185;28;20461;-58
2023/05/10 02:41:36;;;;;;;2.60;2.40;;;13.30;99.90;;;;;;5069000;28;20457;-52
2023/05/10 02:44:02;;;;;;;4.83;2.50;;;13.40;99.90;;;;;;5071079;28;20475;-55
2023/05/10 02:46:28;;;;;;;3.53;2.10;;;13.20;99.90;;;;;;5068292;28;20980;-56
2023/05/10 02:48:54;;;;;;;4.93;2.43;;;13.20;99.90;;;;;;5066822;28;20545;-54
2023/05/10 02:51:24;;;;;;;2.90;2.43;;;13.20;99.90;;;;;;5068935;28;20660;-53
2023/05/10 02:53:53;;;;;;;2.43;2.23;;;13.10;99.90;;;;;;5069134;28;20192;-53
2023/05/10 02:56:51;;;;;;;3.30;2.00;;;13.10;99.90;;;;;;5068238;28;20531;-53
2023/05/10 02:59:16;;;;;;;4.77;2.90;;;13.20;99.90;;;;;;5054947;28;20450;-53
2023/05/10 03:01:42;;;;;;;2.37;2.17;;;13.10;99.90;;;;;;5067124;28;20480;-56
2023/05/10 03:04:07;;;;;;;2.70;2.13;;;13.20;99.90;;;;;;5069683;28;20281;-53
2023/05/10 03:06:33;;;;;;;2.57;2.37;;;13.20;99.90;;;;;;5069251;28;20559;-55
2023/05/10 03:08:59;;;;;;;4.73;2.53;;;13.20;99.90;;;;;;5069256;28;20242;-53
2023/05/10 03:11:27;;;;;;;4.77;2.20;;;13.20;99.90;;;;;;5070069;28;20195;-53
2023/05/10 03:14:28;;;;;;;3.30;2.67;;;13.20;99.90;;;;;;5068785;28;20756;-52
2023/05/10 03:17:05;;;;;;;2.57;2.37;;;13.10;99.90;;;;;;5069104;28;20453;-54
2023/05/10 03:19:40;;;;;;;2.50;2.30;;;13.10;99.90;;;;;;5069902;28;20571;-52
2023/05/10 03:22:13;;;;;;;2.13;1.90;;;13.10;99.90;;;;;;5067029;28;20446;-53
2023/05/10 03:24:41;;;;;;;2.73;2.17;;;13.10;99.90;;;;;;5068276;28;20446;-54
2023/05/10 03:27:08;;;;;;;2.40;2.10;;;13.10;99.90;;;;;;5067459;28;20503;-53
2023/05/10 03:29:34;;;;;;;2.10;1.90;;;13.10;99.90;;;;;;5068088;28;20450;-54
2023/05/10 03:32:00;;;;;;;3.63;1.83;;;13.10;99.90;;;;;;5066149;28;20497;-55
2023/05/10 03:34:26;;;;;;;2.13;1.90;;;13.10;99.90;;;;;;5070097;28;20422;-55
2023/05/10 03:36:52;;;;;;;2.83;2.30;;;13.10;99.90;;;;;;5067475;28;20446;-54
2023/05/10 03:39:18;;;;;;;3.57;2.47;;;13.10;99.90;;;;;;5068700;28;20180;-52
2023/05/10 03:41:43;;;;;;;2.97;2.67;;;13.10;99.90;;;;;;5067418;28;20622;-52
2023/05/10 03:44:09;;;;;;;4.37;2.40;;;13.10;99.90;;;;;;5068812;28;20188;-52
2023/05/10 03:46:34;;;;;;;2.63;2.03;;;13.10;99.90;;;;;;5068508;28;20215;-55
2023/05/10 03:49:00;;;;;;;3.30;2.60;;;13.10;99.90;;;;;;5068612;28;20199;-53
2023/05/10 03:51:28;;;;;;;2.90;2.00;;;13.10;99.90;;;;;;5067106;28;20184;-55
2023/05/10 03:53:56;;;;;;;3.47;2.43;;;13.10;99.90;;;;;;5067453;28;20172;-52
2023/05/10 03:56:22;;;;;;;2.93;2.40;;;13.20;99.90;;;;;;5067887;28;20474;-54
2023/05/10 03:58:48;;;;;;;2.57;2.33;;;13.20;99.90;;;;;;5068347;28;20951;-56
2023/05/10 04:01:13;;;;;;;3.00;1.80;;;13.20;99.90;;;;;;5068841;28;20192;-55
2023/05/10 04:03:39;;;;;;;2.33;2.13;;;13.20;99.90;;;;;;5068894;28;20211;-53
2023/05/10 04:06:05;;;;;;;2.77;2.03;;;13.20;99.90;;;;;;5064981;28;20301;-55
2023/05/10 04:08:31;;;;;;;4.63;2.30;;;13.30;99.90;;;;;;5068964;28;20184;-56
2023/05/10 04:11:07;;;;;;;3.30;2.53;;;13.30;99.90;;;;;;5064884;28;21053;-52
2023/05/10 04:13:33;;;;;;;3.13;2.10;;;13.30;99.90;;;;;;5064040;28;20443;-54
2023/05/10 04:15:58;;;;;;;2.57;2.37;;;13.40;99.90;;;;;;5063758;28;20468;-55
2023/05/10 04:18:24;;;;;;;2.83;2.10;;;13.40;99.90;;;;;;5067261;28;20254;-52
2023/05/10 04:20:49;;;;;;;2.33;2.13;;;13.40;99.90;;;;;;5066640;28;20192;-53
2023/05/10 04:23:16;;;;;;;3.80;2.40;;;13.40;99.90;;;;;;5062875;28;20196;-58
2023/05/10 04:25:42;;;;;;;3.67;2.30;;;13.40;99.90;;;;;;5067061;28;20192;-54
2023/05/10 04:28:08;;;;;;;3.60;2.30;;;13.50;99.90;;;;;;5067203;28;20955;-55
2023/05/10 04:30:34;;;;;;;2.33;2.13;;;13.50;99.90;;;;;;5069067;28;20422;-54
2023/05/10 04:33:01;;;;;;;5.20;2.40;;;13.50;99.90;;;;;;5067766;28;20533;-55
2023/05/10 04:35:27;;;;;;;4.10;2.13;;;13.60;99.90;;;;;;5069114;28;20441;-51
2023/05/10 04:37:53;;;;;;;2.17;1.80;;;13.60;99.90;;;;;;5067966;28;20446;-53
2023/05/10 04:40:19;;;;;;;2.90;2.20;;;13.70;99.90;;;;;;5070698;28;20441;-54
2023/05/10 04:42:45;;;;;;;2.40;2.10;;;13.80;99.90;;;;;;5067444;28;20196;-55
2023/05/10 04:45:11;;;;;;;3.23;2.40;;;13.80;99.90;;;;;;5066952;28;20469;-53
2023/05/10 04:47:37;;;;;;;2.33;2.13;;;13.90;99.90;;;;;;5067035;28;20470;-52
2023/05/10 04:50:04;;;;;;;3.67;2.20;;;14.00;99.90;;;;;;5068786;28;20184;-54
2023/05/10 04:52:29;;;;;;;2.73;2.13;;;14.10;99.90;;;;;;5067175;28;20207;-52
2023/05/10 04:54:55;;;;;;;4.10;2.23;;;14.10;99.90;;;;;;5077597;28;20476;-53
2023/05/10 04:57:21;;;;;;;3.17;2.87;;;14.20;99.90;;;;;;5066230;28;20227;-53
2023/05/10 04:59:46;;;;;;;2.77;2.07;;;14.20;99.90;;;;;;5068672;28;20186;-54
2023/05/10 05:02:12;;;;;;;2.33;2.13;;;14.30;99.90;;;;;;5066806;28;20663;-53
2023/05/10 05:04:37;;;;;;;4.67;2.23;;;14.30;99.90;;;;;;5068631;28;20725;-53
2023/05/10 05:07:03;;;;;;;2.73;2.23;;;14.50;99.90;;;;;;5067453;28;20254;-53
2023/05/10 05:09:29;;;;;;;3.10;1.90;;;14.50;99.90;;;;;;5065840;28;20186;-53
2023/05/10 05:11:54;;;;;;;3.00;2.20;;;14.60;99.90;;;;;;5072387;28;20199;-53
2023/05/10 05:14:24;;;;;;;4.03;2.77;;;14.60;99.90;;;;;;5068108;28;20275;-55
2023/05/10 05:16:53;;;;;;;4.50;2.67;;;14.70;99.90;;;;;;5068302;28;20266;-56
2023/05/10 05:19:19;;;;;;;3.40;3.10;;;14.70;99.90;;;;;;5068306;28;20438;-54
2023/05/10 05:21:44;;;;;;;4.10;2.40;;;14.70;99.90;;;;;;5068533;28;20915;-52
2023/05/10 05:24:12;;;;;;;5.20;2.13;;;14.80;99.90;;;;;;5068959;28;20654;-55
2023/05/10 05:26:38;;;;;;;2.90;2.50;;;15.00;99.90;;;;;;5088576;28;20696;-55
2023/05/10 05:29:03;;;;;;;3.53;2.40;;;15.10;99.90;;;;;;5074994;28;20441;-54
2023/05/10 05:31:29;;;;;;;3.10;2.20;;;15.00;99.90;;;;;;5068924;28;20195;-55
2023/05/10 05:33:55;;;;;;;3.70;2.20;;;15.10;99.90;;;;;;5069705;28;20187;-54
2023/05/10 05:36:21;;;;;;;3.93;2.40;;;15.20;99.90;;;;;;5068996;28;20286;-53
2023/05/10 05:38:46;;;;;;;2.57;2.10;;;15.30;99.90;;;;;;5072334;28;20446;-54
2023/05/10 05:41:12;;;;;;;4.80;2.40;;;15.40;99.90;;;;;;5069299;28;20458;-53
2023/05/10 05:43:38;;;;;;;3.30;2.83;;;15.50;99.90;;;;;;5069429;28;20523;-53
2023/05/10 05:46:03;;;;;;;5.40;2.40;;;15.50;99.90;;;;;;5080973;28;20517;-56
2023/05/10 05:48:30;;;;;;;3.30;2.30;;;15.60;99.90;;;;;;5071047;28;20176;-54
2023/05/10 05:50:56;;;;;;;3.87;3.03;;;15.80;99.90;;;;;;5070179;28;20278;-53
2023/05/10 05:53:23;;;;;;;3.43;2.50;;;15.90;99.90;;;;;;5069434;28;20939;-55
2023/05/10 05:55:57;;;;;;;4.17;2.20;;;16.00;99.90;;;;;;5078835;28;20514;-56
2023/05/10 05:58:22;;;;;;;3.93;2.50;;;16.10;99.90;;;;;;5068928;28;20541;-55
2023/05/10 06:00:48;;;;;;;3.93;2.50;;;16.20;99.90;;;;;;5069109;28;21190;-54
2023/05/10 06:03:14;;;;;;;3.30;3.00;;;16.20;99.90;;;;;;5071141;28;20466;-52
2023/05/10 06:05:39;;;;;;;3.57;2.87;;;16.20;99.90;;;;;;5069131;28;20194;-53
2023/05/10 06:08:05;;;;;;;7.37;2.63;;;16.40;99.90;;;;;;5069686;28;20284;-52
2023/05/10 06:10:31;;;;;;;4.70;2.97;;;16.60;99.90;;;;;;5069017;28;20564;-54
2023/05/10 06:12:56;;;;;;;6.63;3.70;;;16.60;99.90;;;;;;5067983;28;20534;-54
2023/05/10 06:15:22;;;;;;;3.17;2.60;;;16.70;99.90;;;;;;5069571;28;20191;-52
2023/05/10 06:17:49;;;;;;;4.53;2.37;;;16.90;99.90;;;;;;5070521;28;20541;-54
2023/05/10 06:20:15;;;;;;;3.10;2.30;;;16.90;99.90;;;;;;5070570;28;20184;-53
2023/05/10 06:22:41;;;;;;;5.77;2.30;;;16.90;99.90;;;;;;5071395;28;20453;-55
2023/05/10 06:25:08;;;;;;;5.70;3.03;;;17.10;99.90;;;;;;5070090;28;20507;-55
2023/05/10 06:27:34;;;;;;;3.80;2.60;;;17.10;99.90;;;;;;5069368;28;20480;-54
2023/05/10 06:30:00;;;;;;;6.50;2.73;;;17.00;99.90;;;;;;5070857;28;20796;-54
2023/05/10 06:32:25;;;;;;;3.13;2.83;;;17.20;99.90;;;;;;5066563;28;20442;-52
2023/05/10 06:34:51;;;;;;;4.17;3.53;;;17.20;99.90;;;;;;5071121;28;20453;-55
2023/05/10 06:37:17;;;;;;;2.83;2.20;;;17.20;99.90;;;;;;5068777;28;20191;-52
2023/05/10 06:39:42;;;;;;;8.20;2.60;;;17.20;99.90;;;;;;5087188;28;20199;-53
2023/05/10 06:42:08;;;;;;;2.50;2.30;;;17.30;99.90;;;;;;5077061;28;20207;-56
2023/05/10 06:44:33;;;;;;;4.00;2.87;;;17.30;99.90;;;;;;5070850;28;20202;-54
2023/05/10 06:46:59;;;;;;;4.40;2.43;;;17.40;99.90;;;;;;5074846;28;20218;-53
2023/05/10 06:49:25;;;;;;;4.90;2.87;;;17.60;99.90;;;;;;5070865;28;20883;-53
2023/05/10 06:51:50;;;;;;;7.53;2.93;;;17.70;99.90;;;;;;5069901;28;20202;-54
2023/05/10 06:54:16;;;;;;;2.43;2.23;;;17.70;99.90;;;;;;5061844;28;20270;-53
2023/05/10 06:56:42;;;;;;;4.20;2.43;;;17.80;99.90;;;;;;5066162;28;20266;-55
2023/05/10 06:59:07;;;;;;;4.03;2.50;;;17.80;99.90;;;;;;5070409;28;20183;-57
2023/05/10 07:01:33;;;;;;;6.13;3.90;;;17.90;99.90;;;;;;5068216;28;20824;-53
2023/05/10 07:03:58;;;;;;;3.70;2.37;;;18.00;99.90;;;;;;5073902;28;20188;-54
2023/05/10 07:06:24;;;;;;;6.20;2.47;;;18.10;99.90;;;;;;5077594;28;20212;-54
2023/05/10 07:08:50;;;;;;;4.67;2.30;;;18.20;99.90;;;;;;5069440;28;20187;-56
2023/05/10 07:11:15;;;;;;;5.97;2.60;;;18.30;99.90;;;;;;5078791;28;20266;-55
2023/05/10 07:13:43;;;;;;;7.60;3.10;;;18.40;99.90;;;;;;5089918;28;20444;-54
2023/05/10 07:16:09;;;;;;;3.17;2.70;;;18.60;99.90;;;;;;5081143;28;20531;-55
2023/05/10 07:18:35;;;;;;;4.73;2.87;;;18.80;99.90;;;;;;5070206;28;20446;-54
2023/05/10 07:21:01;;;;;;;4.57;2.90;;;18.70;99.90;;;;;;5065453;28;20543;-54
2023/05/10 07:23:27;;;;;;;2.80;2.60;;;18.70;99.90;;;;;;5069670;28;20987;-55
2023/05/10 07:25:53;;;;;;;5.33;3.20;;;18.70;99.90;;;;;;5070917;28;20184;-54
2023/05/10 07:28:19;;;;;;;4.17;3.27;;;18.70;99.90;;;;;;5068928;28;20187;-53
2023/05/10 07:30:45;;;;;;;2.90;2.70;;;18.70;99.90;;;;;;5067029;28;20488;-53
2023/05/10 07:33:13;;;;;;;4.40;2.80;;;18.80;99.90;;;;;;5068202;28;20950;-53
2023/05/10 07:35:38;;;;;;;3.07;2.57;;;18.80;99.90;;;;;;5065301;28;20707;-54
2023/05/10 07:38:04;;;;;;;3.40;3.00;;;18.80;99.90;;;;;;5072799;28;20462;-53
2023/05/10 07:40:30;;;;;;;2.87;2.50;;;18.80;99.90;;;;;;5069364;28;20188;-52
2023/05/10 07:42:55;;;;;;;4.17;3.37;;;18.90;99.90;;;;;;5069852;28;20267;-54
2023/05/10 07:45:23;;;;;;;6.77;3.37;;;19.00;99.90;;;;;;5065634;28;20192;-55
2023/05/10 07:47:48;;;;;;;2.87;2.67;;;18.90;99.90;;;;;;5065511;28;20245;-54
2023/05/10 07:50:14;;;;;;;5.20;2.70;;;19.10;99.90;;;;;;5066858;28;20845;-54
2023/05/10 07:52:40;;;;;;;3.47;3.07;;;19.30;99.90;;;;;;5068362;28;20191;-54
2023/05/10 07:55:07;;;;;;;3.40;2.60;;;19.40;99.90;;;;;;5063398;28;20196;-54
2023/05/10 07:57:33;;;;;;;3.33;2.80;;;19.50;99.90;;;;;;5062534;28;20403;-55
2023/05/10 07:59:59;;;;;;;5.70;3.67;;;19.60;99.90;;;;;;5066690;28;20935;-54
2023/05/10 08:02:25;;;;;;;6.40;3.07;;;19.60;99.90;;;;;;5067901;28;20507;-54
2023/05/10 08:04:51;;;;;;;3.10;2.77;;;19.70;99.90;;;;;;5066049;28;20705;-54
2023/05/10 08:07:17;;;;;;;3.57;2.90;;;19.90;99.90;;;;;;5063063;28;20669;-54
2023/05/10 08:09:42;;;;;;;3.70;3.40;;;19.90;99.90;;;;;;5068911;28;20469;-54
2023/05/10 08:12:08;;;;;;;5.43;3.50;;;20.10;99.90;;;;;;5067866;28;20180;-54
2023/05/10 08:14:36;;;;;;;4.00;2.90;;;20.20;99.90;;;;;;5075028;28;20552;-53
2023/05/10 08:17:02;;;;;;;4.70;3.10;;;20.30;99.90;;;;;;5064045;28;20290;-54
2023/05/10 08:19:28;;;;;;;3.40;3.20;;;20.30;99.90;;;;;;5065536;28;20454;-54
2023/05/10 08:21:55;;;;;;;9.57;3.80;;;20.40;99.90;;;;;;5068791;28;21024;-54
2023/05/10 08:24:21;;;;;;;5.63;3.97;;;20.50;99.90;;;;;;5068072;28;20184;-54
2023/05/10 08:26:47;;;;;;;7.87;3.90;;;20.70;99.90;;;;;;5068423;28;20493;-55
2023/05/10 08:29:13;;;;;;;4.53;3.50;;;20.60;99.90;;;;;;5068915;28;20434;-52
2023/05/10 08:31:39;;;;;;;3.60;3.30;;;20.70;99.90;;;;;;5067939;28;20924;-54
2023/05/10 08:34:05;;;;;;;3.73;3.33;;;20.80;99.90;;;;;;5065852;28;20472;-53
2023/05/10 08:36:31;;;;;;;3.50;3.03;;;20.80;99.90;;;;;;5063844;28;20196;-54
2023/05/10 08:38:58;;;;;;;3.40;3.10;;;20.80;99.90;;;;;;5061145;28;20592;-55
2023/05/10 08:41:25;;;;;;;3.30;3.00;;;20.70;99.90;;;;;;5062818;28;20484;-55
2023/05/10 08:43:52;;;;;;;4.10;3.70;;;20.70;99.90;;;;;;5065349;28;20483;-54
2023/05/10 08:46:20;;;;;;;3.43;2.93;;;20.90;99.90;;;;;;5065970;28;20485;-55
2023/05/10 08:48:46;;;;;;;5.97;3.53;;;21.00;99.90;;;;;;5080941;28;20841;-54
2023/05/10 08:51:21;;;;;;;4.10;3.70;;;21.10;99.90;;;;;;5066829;28;20461;-54
2023/05/10 08:53:47;;;;;;;5.20;3.03;;;20.90;99.90;;;;;;5066187;28;20468;-55
2023/05/10 08:56:15;;;;;;;5.10;3.63;;;21.00;99.90;;;;;;5065848;28;20474;-54
2023/05/10 08:58:41;;;;;;;5.40;3.90;;;21.30;99.90;;;;;;5079600;28;20436;-54
2023/05/10 09:01:08;;;;;;;4.60;3.27;;;21.40;99.90;;;;;;5084671;28;20446;-54
2023/05/10 09:03:34;;;;;;;4.10;3.60;;;21.40;99.90;;;;;;5083740;28;20207;-54
2023/05/10 09:06:00;;;;;;;3.70;3.40;;;21.60;99.90;;;;;;5071640;28;20715;-54
2023/05/10 09:08:26;;;;;;;3.80;3.47;;;21.60;99.90;;;;;;5075756;28;20815;-53
2023/05/10 09:10:53;;;;;;;5.93;4.10;;;21.60;99.90;;;;;;5070619;28;20654;-55
2023/05/10 09:13:20;;;;;;;3.67;3.37;;;21.70;99.90;;;;;;5075014;28;20446;-58
2023/05/10 09:15:46;;;;;;;5.83;3.87;;;21.70;99.90;;;;;;5075624;28;20516;-55
2023/05/10 09:18:12;;;;;;;5.20;3.83;;;21.50;99.90;;;;;;5081661;28;20852;-56
2023/05/10 09:20:38;;;;;;;6.43;3.83;;;21.50;99.90;;;;;;5075972;28;20481;-56
2023/05/10 09:23:03;;;;;;;3.73;3.43;;;21.70;99.90;;;;;;5080817;28;20188;-54
2023/05/10 09:25:29;;;;;;;3.20;2.90;;;21.70;99.90;;;;;;5077484;28;20193;-55
2023/05/10 09:27:55;;;;;;;4.00;3.70;;;21.80;99.90;;;;;;5079617;28;20204;-56
2023/05/10 09:30:29;;;;;;;5.23;3.60;;;22.00;99.90;;;;;;5085106;28;20221;-53
2023/05/10 09:32:56;;;;;;;4.70;3.53;;;22.00;99.90;;;;;;5070631;28;20179;-56
2023/05/10 09:35:24;;;;;;;5.43;3.50;;;22.10;99.90;;;;;;5072332;28;20801;-54
2023/05/10 09:37:53;;;;;;;4.10;3.20;;;22.00;99.90;;;;;;5067646;28;20848;-54
2023/05/10 09:40:21;;;;;;;8.47;4.20;;;21.90;99.90;;;;;;5065396;28;20446;-56
2023/05/10 09:43:10;;;;;;;5.10;3.40;;;22.00;99.90;;;;;;5069927;28;20473;-54
2023/05/10 09:45:36;;;;;;;6.50;3.97;;;22.00;99.90;;;;;;5065338;28;20537;-56
2023/05/10 09:48:03;;;;;;;4.30;3.27;;;22.10;99.90;;;;;;5080224;28;20520;-57
2023/05/10 09:50:30;;;;;;;3.80;3.50;;;22.20;99.90;;;;;;5070273;28;20463;-56
2023/05/10 09:53:02;;;;;;;3.90;3.40;;;22.50;99.90;;;;;;5091842;28;20466;-54
2023/05/10 09:55:40;;;;;;;4.47;4.07;;;22.40;99.90;;;;;;5079248;28;20751;-55
2023/05/10 09:58:09;;;;;;;10.00;4.50;;;22.30;99.90;;;;;;5072081;28;20859;-54
2023/05/10 10:00:40;;;;;;;3.97;3.20;;;22.40;99.90;;;;;;5071151;28;21057;-54
2023/05/10 10:03:11;;;;;;;5.70;3.80;;;22.50;99.90;;;;;;5083574;28;20440;-55
2023/05/10 10:05:41;;;;;;;4.33;3.93;;;22.70;99.90;;;;;;5090692;28;20447;-54
2023/05/10 10:08:07;;;;;;;4.40;4.00;;;22.70;99.90;;;;;;5080723;28;21269;-55
2023/05/10 10:10:34;;;;;;;6.00;4.20;;;22.70;99.90;;;;;;5091518;28;20468;-55
2023/05/10 10:12:59;;;;;;;5.27;4.10;;;22.70;99.90;;;;;;5085797;28;20605;-53
2023/05/10 10:15:25;;;;;;;5.33;3.70;;;22.90;99.90;;;;;;5079265;28;20568;-56
2023/05/10 10:17:52;;;;;;;5.03;4.53;;;23.00;99.90;;;;;;5075252;28;20252;-55
2023/05/10 10:20:19;;;;;;;6.63;3.80;;;23.10;99.90;;;;;;5072788;28;20975;-55
2023/05/10 10:22:46;;;;;;;4.07;3.43;;;23.20;99.90;;;;;;5071966;28;20441;-56
2023/05/10 10:25:15;;;;;;;4.60;4.20;;;23.10;99.90;;;;;;5070329;28;20546;-55
2023/05/10 10:27:50;;;;;;;5.20;3.50;;;23.20;99.90;;;;;;5070755;28;20478;-56
2023/05/10 10:30:42;;;;;;;5.40;3.80;;;23.10;99.90;;;;;;5087167;28;20435;-55
2023/05/10 10:33:46;;;;;;;4.10;3.30;;;23.10;99.90;;;;;;5075796;28;20445;-55
2023/05/10 10:36:12;;;;;;;5.60;3.70;;;23.20;99.90;;;;;;5079146;28;20409;-54
2023/05/10 10:38:59;;;;;;;7.00;4.00;;;23.20;99.90;;;;;;5075498;28;21011;-55
2023/05/10 10:41:29;;;;;;;5.77;3.90;;;23.00;99.90;;;;;;5069572;28;20272;-55
2023/05/10 10:44:36;;;;;;;3.77;3.40;;;23.00;99.90;;;;;;5069073;28;20853;-56
2023/05/10 10:47:27;;;;;;;3.83;3.30;;;23.10;99.90;;;;;;5026334;28;20480;-53
2023/05/10 10:50:08;;;;;;;4.50;3.90;;;23.20;99.90;;;;;;5025413;28;20680;-54
2023/05/10 10:52:38;;;;;;;4.67;3.80;;;23.00;99.90;;;;;;5058627;28;20444;-53
2023/05/10 10:55:08;;;;;;;5.87;3.67;;;22.90;99.90;;;;;;5070988;28;20460;-57
2023/05/10 10:58:00;;;;;;;7.50;4.33;;;22.90;99.90;;;;;;5065754;28;20476;-56
2023/05/10 11:00:30;;;;;;;5.77;4.30;;;22.90;99.90;;;;;;5054548;28;20965;-54
2023/05/10 11:02:59;;;;;;;6.30;4.00;;;22.90;99.90;;;;;;5065338;28;20450;-53
2023/05/10 11:05:46;;;;;;;5.77;4.47;;;23.10;99.90;;;;;;5070010;28;20494;-54
2023/05/10 11:08:26;;;;;;;3.67;3.37;;;23.20;99.90;;;;;;5063966;28;20474;-52
2023/05/10 11:11:04;;;;;;;4.40;3.80;;;23.50;99.90;;;;;;5067646;28;20442;-54
2023/05/10 11:13:32;;;;;;;4.10;3.70;;;23.50;99.90;;;;;;5064587;28;20458;-52
2023/05/10 11:15:59;;;;;;;4.20;3.80;;;23.30;99.90;;;;;;5069340;28;20928;-52
2023/05/10 11:18:29;;;;;;;4.93;4.37;;;23.20;99.90;;;;;;5068097;28;20496;-55
2023/05/10 11:20:59;;;;;;;6.90;3.77;;;23.40;99.90;;;;;;5067429;28;20945;-54
2023/05/10 11:23:31;;;;;;;4.80;4.00;;;23.50;99.90;;;;;;5067393;28;20452;-53
2023/05/10 11:25:56;;;;;;;5.07;4.17;;;23.50;99.90;;;;;;5068568;28;20516;-53
2023/05/10 11:28:22;;;;;;;4.80;3.90;;;23.40;99.90;;;;;;5064196;28;20515;-55
2023/05/10 11:30:48;;;;;;;5.60;3.90;;;23.50;99.90;;;;;;5068394;28;20192;-55
2023/05/10 11:33:19;;;;;;;7.10;3.70;;;23.80;99.90;;;;;;5075467;28;20487;-54
2023/05/10 11:35:45;;;;;;;3.60;3.30;;;23.90;99.90;;;;;;5077507;28;20677;-56
2023/05/10 11:38:12;;;;;;;4.73;4.00;;;23.90;99.90;;;;;;5067025;28;21017;-54
2023/05/10 11:40:38;;;;;;;4.00;3.60;;;23.90;99.90;;;;;;5072459;28;20461;-54
2023/05/10 11:43:05;;;;;;;4.20;3.90;;;24.10;99.90;;;;;;5068643;28;20498;-53
2023/05/10 11:45:35;;;;;;;5.30;3.70;;;24.20;99.90;;;;;;5066158;28;20451;-54
2023/05/10 11:48:01;;;;;;;3.27;3.00;;;24.10;99.90;;;;;;5058738;28;21075;-56
2023/05/10 11:50:27;;;;;;;5.17;3.60;;;24.30;99.90;;;;;;5067133;28;20801;-54
2023/05/10 11:52:54;;;;;;;5.23;4.10;;;24.20;99.90;;;;;;5067510;28;20451;-55
2023/05/10 11:55:20;;;;;;;6.40;4.20;;;24.20;99.90;;;;;;5070151;28;20447;-53
2023/05/10 11:57:46;;;;;;;4.20;3.80;;;24.30;99.90;;;;;;5071009;28;20993;-53
2023/05/10 12:00:13;;;;;;;8.27;4.40;;;24.10;99.90;;;;;;5064768;28;20533;-53
2023/05/10 12:02:39;;;;;;;4.63;4.27;;;24.10;99.90;;;;;;5069623;28;20423;-55
2023/05/10 12:05:05;;;;;;;4.00;3.60;;;24.20;99.90;;;;;;5064736;28;20932;-53
2023/05/10 12:07:31;;;;;;;3.90;3.60;;;24.50;99.90;;;;;;5069140;28;20771;-55
2023/05/10 12:10:17;;;;;;;5.47;3.60;;;24.60;99.90;;;;;;5064810;28;20447;-53
2023/05/10 12:12:49;;;;;;;7.03;4.40;;;24.60;99.90;;;;;;5069245;28;20574;-53
2023/05/10 12:15:22;;;;;;;3.97;3.57;;;24.60;99.90;;;;;;5067937;28;20443;-53
2023/05/10 12:17:49;;;;;;;3.63;3.33;;;24.50;99.90;;;;;;5074718;28;20984;-55
2023/05/10 12:20:21;;;;;;;6.17;3.90;;;24.50;99.90;;;;;;5072281;28;20446;-53
2023/05/10 12:22:50;;;;;;;4.20;3.60;;;24.50;99.90;;;;;;5076048;28;20493;-56
2023/05/10 12:25:17;;;;;;;3.97;3.57;;;24.50;99.90;;;;;;5066276;28;20452;-54
2023/05/10 12:27:51;;;;;;;4.00;3.40;;;24.50;99.90;;;;;;5085599;28;20550;-55
2023/05/10 12:30:25;;;;;;;4.30;3.90;;;24.50;99.90;;;;;;5089644;28;20888;-55
2023/05/10 12:32:51;;;;;;;5.67;4.40;;;24.70;99.90;;;;;;5089622;28;20780;-54
2023/05/10 12:35:21;;;;;;;7.30;4.13;;;24.80;99.90;;;;;;5078427;28;20440;-54
2023/05/10 12:37:47;;;;;;;4.33;3.93;;;24.80;99.90;;;;;;5077352;28;20424;-54
2023/05/10 12:40:13;;;;;;;5.10;4.00;;;24.80;99.90;;;;;;5089696;28;21022;-54
2023/05/10 12:42:40;;;;;;;5.57;3.90;;;24.90;99.90;;;;;;5089862;28;20727;-55
2023/05/10 12:45:06;;;;;;;4.03;3.63;;;24.80;99.90;;;;;;5089477;28;20423;-53
2023/05/10 12:47:32;;;;;;;4.00;3.50;;;24.90;99.90;;;;;;5089058;28;20439;-55
2023/05/10 12:49:59;;;;;;;3.63;3.20;;;25.00;99.90;;;;;;5076155;28;20444;-55
2023/05/10 12:52:25;;;;;;;4.30;3.90;;;25.00;99.90;;;;;;5069405;28;20411;-53
2023/05/10 12:54:52;;;;;;;7.23;3.40;;;25.10;99.90;;;;;;5069129;28;20440;-53